sensor_id;sensor_type;location;lat;lon;timestamp;temperature;humidity
33673;DHT22;20011;51.510;9.942;2022-09-09T00:04:09;17.00;99.90
33673;DHT22;20011;51.510;9.942;2022-09-09T00:09:28;17.10;99.90
33673;DHT22;20011;51.510;9.942;2022-09-09T00:12:04;17.20;99.90
33673;DHT22;20011;51.510;9.942;2022-09-09T00:20:05;17.20;99.90
33673;DHT22;20011;51.510;9.942;2022-09-09T00:22:45;17.20;99.90
33673;DHT22;20011;51.510;9.942;2022-09-09T00:25:33;17.20;99.90
33673;DHT22;20011;51.510;9.942;2022-09-09T00:28:01;17.30;99.90
33673;DHT22;20011;51.510;9.942;2022-09-09T00:30:32;17.30;99.90
33673;DHT22;20011;51.510;9.942;2022-09-09T00:33:15;17.20;99.90
33673;DHT22;20011;51.510;9.942;2022-09-09T00:35:51;17.20;99.90
33673;DHT22;20011;51.510;9.942;2022-09-09T00:38:28;17.20;99.90
33673;DHT22;20011;51.510;9.942;2022-09-09T00:44:43;17.30;99.90
33673;DHT22;20011;51.510;9.942;2022-09-09T00:52:51;17.30;99.90
33673;DHT22;20011;51.510;9.942;2022-09-09T00:58:00;17.30;99.90
33673;DHT22;20011;51.510;9.942;2022-09-09T01:00:31;17.30;99.90
33673;DHT22;20011;51.510;9.942;2022-09-09T01:06:22;17.20;99.90
33673;DHT22;20011;51.510;9.942;2022-09-09T01:17:26;17.20;99.90
33673;DHT22;20011;51.510;9.942;2022-09-09T01:20:17;17.10;99.90
33673;DHT22;20011;51.510;9.942;2022-09-09T01:28:47;17.20;99.90
33673;DHT22;20011;51.510;9.942;2022-09-09T01:31:23;17.20;99.90
33673;DHT22;20011;51.510;9.942;2022-09-09T01:33:53;17.20;99.90
33673;DHT22;20011;51.510;9.942;2022-09-09T01:39:21;17.20;99.90
33673;DHT22;20011;51.510;9.942;2022-09-09T01:41:57;17.10;99.90
33673;DHT22;20011;51.510;9.942;2022-09-09T01:44:25;17.10;99.90
33673;DHT22;20011;51.510;9.942;2022-09-09T01:46:53;17.10;99.90
33673;DHT22;20011;51.510;9.942;2022-09-09T01:49:21;17.10;99.90
33673;DHT22;20011;51.510;9.942;2022-09-09T01:51:52;17.10;99.90
33673;DHT22;20011;51.510;9.942;2022-09-09T01:54:30;17.00;99.90
33673;DHT22;20011;51.510;9.942;2022-09-09T01:57:27;17.00;99.90
33673;DHT22;20011;51.510;9.942;2022-09-09T02:05:49;16.90;99.90
33673;DHT22;20011;51.510;9.942;2022-09-09T02:08:33;17.00;99.90
33673;DHT22;20011;51.510;9.942;2022-09-09T02:11:12;16.90;99.90
33673;DHT22;20011;51.510;9.942;2022-09-09T02:13:53;16.80;99.90
33673;DHT22;20011;51.510;9.942;2022-09-09T02:19:28;16.90;99.90
33673;DHT22;20011;51.510;9.942;2022-09-09T02:22:22;16.80;99.90
33673;DHT22;20011;51.510;9.942;2022-09-09T02:24:51;16.80;99.90
33673;DHT22;20011;51.510;9.942;2022-09-09T02:27:25;16.90;99.90
33673;DHT22;20011;51.510;9.942;2022-09-09T02:29:55;16.90;99.90
33673;DHT22;20011;51.510;9.942;2022-09-09T02:32:37;16.90;99.90
33673;DHT22;20011;51.510;9.942;2022-09-09T02:35:14;17.00;99.90
33673;DHT22;20011;51.510;9.942;2022-09-09T02:37:44;16.90;99.90
33673;DHT22;20011;51.510;9.942;2022-09-09T02:40:15;17.00;99.90
33673;DHT22;20011;51.510;9.942;2022-09-09T02:42:48;17.00;99.90
33673;DHT22;20011;51.510;9.942;2022-09-09T02:45:22;17.10;99.90
33673;DHT22;20011;51.510;9.942;2022-09-09T02:53:39;17.20;99.90
33673;DHT22;20011;51.510;9.942;2022-09-09T02:56:20;17.20;99.90
33673;DHT22;20011;51.510;9.942;2022-09-09T02:58:49;17.20;99.90
33673;DHT22;20011;51.510;9.942;2022-09-09T03:01:19;17.20;99.90
33673;DHT22;20011;51.510;9.942;2022-09-09T03:03:46;17.20;99.90
33673;DHT22;20011;51.510;9.942;2022-09-09T03:06:15;17.20;99.90
33673;DHT22;20011;51.510;9.942;2022-09-09T03:08:48;17.30;99.90
33673;DHT22;20011;51.510;9.942;2022-09-09T03:11:21;17.30;99.90
33673;DHT22;20011;51.510;9.942;2022-09-09T03:13:49;17.30;99.90
33673;DHT22;20011;51.510;9.942;2022-09-09T03:16:16;17.30;99.90
33673;DHT22;20011;51.510;9.942;2022-09-09T03:18:48;17.30;99.90
33673;DHT22;20011;51.510;9.942;2022-09-09T03:21:15;17.30;99.90
33673;DHT22;20011;51.510;9.942;2022-09-09T03:23:43;17.30;99.90
33673;DHT22;20011;51.510;9.942;2022-09-09T03:26:12;17.30;99.90
33673;DHT22;20011;51.510;9.942;2022-09-09T03:28:43;17.30;99.90
33673;DHT22;20011;51.510;9.942;2022-09-09T03:31:14;17.30;99.90
33673;DHT22;20011;51.510;9.942;2022-09-09T03:33:42;17.40;99.90
33673;DHT22;20011;51.510;9.942;2022-09-09T03:36:12;17.30;99.90
33673;DHT22;20011;51.510;9.942;2022-09-09T03:38:39;17.30;99.90
33673;DHT22;20011;51.510;9.942;2022-09-09T03:41:07;17.40;99.90
33673;DHT22;20011;51.510;9.942;2022-09-09T03:43:35;17.30;99.90
33673;DHT22;20011;51.510;9.942;2022-09-09T03:46:03;17.30;99.90
33673;DHT22;20011;51.510;9.942;2022-09-09T03:48:31;17.30;99.90
33673;DHT22;20011;51.510;9.942;2022-09-09T03:50:59;17.30;99.90
33673;DHT22;20011;51.510;9.942;2022-09-09T03:53:30;17.30;99.90
33673;DHT22;20011;51.510;9.942;2022-09-09T03:55:58;17.30;99.90
33673;DHT22;20011;51.510;9.942;2022-09-09T03:58:27;17.30;99.90
33673;DHT22;20011;51.510;9.942;2022-09-09T04:01:06;17.40;99.90
33673;DHT22;20011;51.510;9.942;2022-09-09T04:03:36;17.30;99.90
33673;DHT22;20011;51.510;9.942;2022-09-09T04:06:04;17.30;99.90
33673;DHT22;20011;51.510;9.942;2022-09-09T04:08:33;17.30;99.90
33673;DHT22;20011;51.510;9.942;2022-09-09T04:11:03;17.30;99.90
33673;DHT22;20011;51.510;9.942;2022-09-09T04:13:35;17.20;99.90
33673;DHT22;20011;51.510;9.942;2022-09-09T04:16:04;17.30;99.90
33673;DHT22;20011;51.510;9.942;2022-09-09T04:18:34;17.20;99.90
33673;DHT22;20011;51.510;9.942;2022-09-09T04:21:02;17.20;99.90
33673;DHT22;20011;51.510;9.942;2022-09-09T04:23:32;17.10;99.90
33673;DHT22;20011;51.510;9.942;2022-09-09T04:26:01;17.20;99.90
33673;DHT22;20011;51.510;9.942;2022-09-09T04:28:32;17.20;99.90
33673;DHT22;20011;51.510;9.942;2022-09-09T04:31:10;17.20;99.90
33673;DHT22;20011;51.510;9.942;2022-09-09T04:33:40;17.10;99.90
33673;DHT22;20011;51.510;9.942;2022-09-09T04:36:08;17.20;99.90
33673;DHT22;20011;51.510;9.942;2022-09-09T04:38:36;17.20;99.90
33673;DHT22;20011;51.510;9.942;2022-09-09T04:41:04;17.10;99.90
33673;DHT22;20011;51.510;9.942;2022-09-09T04:43:32;17.20;99.90
33673;DHT22;20011;51.510;9.942;2022-09-09T04:46:02;17.10;99.90
33673;DHT22;20011;51.510;9.942;2022-09-09T04:48:30;17.10;99.90
33673;DHT22;20011;51.510;9.942;2022-09-09T04:51:06;17.00;99.90
33673;DHT22;20011;51.510;9.942;2022-09-09T04:53:36;17.10;99.90
33673;DHT22;20011;51.510;9.942;2022-09-09T04:58:41;17.10;99.90
33673;DHT22;20011;51.510;9.942;2022-09-09T05:01:15;17.10;99.90
33673;DHT22;20011;51.510;9.942;2022-09-09T05:03:45;17.00;99.90
33673;DHT22;20011;51.510;9.942;2022-09-09T05:06:21;17.10;99.90
33673;DHT22;20011;51.510;9.942;2022-09-09T05:08:52;17.10;99.90
33673;DHT22;20011;51.510;9.942;2022-09-09T05:11:26;17.10;99.90
33673;DHT22;20011;51.510;9.942;2022-09-09T05:14:01;17.10;99.90
33673;DHT22;20011;51.510;9.942;2022-09-09T05:16:30;17.10;99.90
33673;DHT22;20011;51.510;9.942;2022-09-09T05:18:58;17.00;99.90
33673;DHT22;20011;51.510;9.942;2022-09-09T05:21:34;17.10;99.90
33673;DHT22;20011;51.510;9.942;2022-09-09T05:24:01;17.10;99.90
33673;DHT22;20011;51.510;9.942;2022-09-09T05:26:28;17.10;99.90
33673;DHT22;20011;51.510;9.942;2022-09-09T05:28:57;17.20;99.90
33673;DHT22;20011;51.510;9.942;2022-09-09T05:31:26;17.20;99.90
33673;DHT22;20011;51.510;9.942;2022-09-09T05:33:55;17.20;99.90
33673;DHT22;20011;51.510;9.942;2022-09-09T05:36:22;17.20;99.90
33673;DHT22;20011;51.510;9.942;2022-09-09T05:38:53;17.20;99.90
33673;DHT22;20011;51.510;9.942;2022-09-09T05:41:21;17.20;99.90
33673;DHT22;20011;51.510;9.942;2022-09-09T05:43:52;17.20;99.90
33673;DHT22;20011;51.510;9.942;2022-09-09T05:46:22;17.20;99.90
33673;DHT22;20011;51.510;9.942;2022-09-09T05:48:52;17.30;99.90
33673;DHT22;20011;51.510;9.942;2022-09-09T05:51:27;17.30;99.90
33673;DHT22;20011;51.510;9.942;2022-09-09T05:53:58;17.30;99.90
33673;DHT22;20011;51.510;9.942;2022-09-09T05:56:29;17.30;99.90
33673;DHT22;20011;51.510;9.942;2022-09-09T05:58:58;17.40;99.90
33673;DHT22;20011;51.510;9.942;2022-09-09T06:01:32;17.30;99.90
33673;DHT22;20011;51.510;9.942;2022-09-09T06:04:01;17.40;99.90
33673;DHT22;20011;51.510;9.942;2022-09-09T06:06:34;17.40;99.90
33673;DHT22;20011;51.510;9.942;2022-09-09T06:09:09;17.40;99.90
33673;DHT22;20011;51.510;9.942;2022-09-09T06:11:39;17.40;99.90
33673;DHT22;20011;51.510;9.942;2022-09-09T06:14:07;17.40;99.90
33673;DHT22;20011;51.510;9.942;2022-09-09T06:16:36;17.40;99.90
33673;DHT22;20011;51.510;9.942;2022-09-09T06:19:16;17.40;99.90
33673;DHT22;20011;51.510;9.942;2022-09-09T06:21:43;17.50;99.90
33673;DHT22;20011;51.510;9.942;2022-09-09T06:24:12;17.50;99.90
33673;DHT22;20011;51.510;9.942;2022-09-09T06:26:41;17.50;99.90
33673;DHT22;20011;51.510;9.942;2022-09-09T06:29:11;17.50;99.90
33673;DHT22;20011;51.510;9.942;2022-09-09T06:31:39;17.50;99.90
33673;DHT22;20011;51.510;9.942;2022-09-09T06:34:20;17.60;99.90
33673;DHT22;20011;51.510;9.942;2022-09-09T06:36:54;17.60;99.90
33673;DHT22;20011;51.510;9.942;2022-09-09T06:39:22;17.60;99.90
33673;DHT22;20011;51.510;9.942;2022-09-09T06:41:49;17.60;99.90
33673;DHT22;20011;51.510;9.942;2022-09-09T06:44:45;17.60;99.90
33673;DHT22;20011;51.510;9.942;2022-09-09T06:47:33;17.60;99.90
33673;DHT22;20011;51.510;9.942;2022-09-09T06:50:02;17.60;99.90
33673;DHT22;20011;51.510;9.942;2022-09-09T06:52:32;17.70;99.90
33673;DHT22;20011;51.510;9.942;2022-09-09T06:55:01;17.70;99.90
33673;DHT22;20011;51.510;9.942;2022-09-09T06:57:29;17.80;99.90
33673;DHT22;20011;51.510;9.942;2022-09-09T07:00:15;17.80;99.90
33673;DHT22;20011;51.510;9.942;2022-09-09T07:02:42;17.80;99.90
33673;DHT22;20011;51.510;9.942;2022-09-09T07:05:11;17.80;99.90
33673;DHT22;20011;51.510;9.942;2022-09-09T07:07:40;17.80;99.90
33673;DHT22;20011;51.510;9.942;2022-09-09T07:10:09;17.90;99.90
33673;DHT22;20011;51.510;9.942;2022-09-09T07:12:37;17.90;99.90
33673;DHT22;20011;51.510;9.942;2022-09-09T07:15:08;17.90;99.90
33673;DHT22;20011;51.510;9.942;2022-09-09T07:17:35;18.00;99.90
33673;DHT22;20011;51.510;9.942;2022-09-09T07:20:02;18.00;99.90
33673;DHT22;20011;51.510;9.942;2022-09-09T07:22:31;18.00;99.90
33673;DHT22;20011;51.510;9.942;2022-09-09T07:25:00;18.00;99.90
33673;DHT22;20011;51.510;9.942;2022-09-09T07:27:28;18.10;99.90
33673;DHT22;20011;51.510;9.942;2022-09-09T07:29:55;18.00;99.90
33673;DHT22;20011;51.510;9.942;2022-09-09T07:32:24;18.10;99.90
33673;DHT22;20011;51.510;9.942;2022-09-09T07:34:52;18.10;99.90
33673;DHT22;20011;51.510;9.942;2022-09-09T07:37:20;18.10;99.90
33673;DHT22;20011;51.510;9.942;2022-09-09T07:39:48;18.20;99.90
33673;DHT22;20011;51.510;9.942;2022-09-09T07:42:17;18.10;99.90
33673;DHT22;20011;51.510;9.942;2022-09-09T07:44:44;18.20;99.90
33673;DHT22;20011;51.510;9.942;2022-09-09T07:47:13;18.20;99.90
33673;DHT22;20011;51.510;9.942;2022-09-09T07:49:44;18.20;99.90
33673;DHT22;20011;51.510;9.942;2022-09-09T07:52:16;18.30;99.90
33673;DHT22;20011;51.510;9.942;2022-09-09T07:54:48;18.30;99.90
33673;DHT22;20011;51.510;9.942;2022-09-09T07:57:16;18.30;99.90
33673;DHT22;20011;51.510;9.942;2022-09-09T07:59:46;18.30;99.90
33673;DHT22;20011;51.510;9.942;2022-09-09T08:02:13;18.30;99.90
33673;DHT22;20011;51.510;9.942;2022-09-09T08:04:41;18.30;99.90
33673;DHT22;20011;51.510;9.942;2022-09-09T08:07:08;18.40;99.90
33673;DHT22;20011;51.510;9.942;2022-09-09T08:09:43;18.40;99.90
33673;DHT22;20011;51.510;9.942;2022-09-09T08:12:17;18.50;99.90
33673;DHT22;20011;51.510;9.942;2022-09-09T08:14:45;18.50;99.90
33673;DHT22;20011;51.510;9.942;2022-09-09T08:17:12;18.60;99.90
33673;DHT22;20011;51.510;9.942;2022-09-09T08:19:39;18.60;99.90
33673;DHT22;20011;51.510;9.942;2022-09-09T08:22:10;18.70;99.90
33673;DHT22;20011;51.510;9.942;2022-09-09T08:24:39;18.70;99.90
33673;DHT22;20011;51.510;9.942;2022-09-09T08:27:07;18.70;99.90
33673;DHT22;20011;51.510;9.942;2022-09-09T08:29:34;18.80;99.90
33673;DHT22;20011;51.510;9.942;2022-09-09T08:32:01;18.70;99.90
33673;DHT22;20011;51.510;9.942;2022-09-09T08:34:29;18.80;99.90
33673;DHT22;20011;51.510;9.942;2022-09-09T08:37:00;18.80;99.90
33673;DHT22;20011;51.510;9.942;2022-09-09T08:39:33;18.80;99.90
33673;DHT22;20011;51.510;9.942;2022-09-09T08:50:26;18.90;99.90
33673;DHT22;20011;51.510;9.942;2022-09-09T08:53:01;18.90;99.90
33673;DHT22;20011;51.510;9.942;2022-09-09T08:58:28;19.00;99.90
33673;DHT22;20011;51.510;9.942;2022-09-09T09:09:11;18.90;99.90
33673;DHT22;20011;51.510;9.942;2022-09-09T09:11:51;18.90;99.90
33673;DHT22;20011;51.510;9.942;2022-09-09T09:14:28;18.90;99.90
33673;DHT22;20011;51.510;9.942;2022-09-09T09:17:04;18.90;99.90
33673;DHT22;20011;51.510;9.942;2022-09-09T09:19:34;18.90;99.90
33673;DHT22;20011;51.510;9.942;2022-09-09T09:27:32;18.90;99.90
33673;DHT22;20011;51.510;9.942;2022-09-09T09:30:12;18.90;99.90
33673;DHT22;20011;51.510;9.942;2022-09-09T09:33:05;18.90;99.90
33673;DHT22;20011;51.510;9.942;2022-09-09T09:35:32;18.90;99.90
33673;DHT22;20011;51.510;9.942;2022-09-09T09:38:18;19.00;99.90
33673;DHT22;20011;51.510;9.942;2022-09-09T09:41:07;19.00;99.90
33673;DHT22;20011;51.510;9.942;2022-09-09T09:43:40;19.00;99.90
33673;DHT22;20011;51.510;9.942;2022-09-09T09:46:22;19.10;99.90
33673;DHT22;20011;51.510;9.942;2022-09-09T09:49:02;19.10;99.90
33673;DHT22;20011;51.510;9.942;2022-09-09T09:51:33;19.20;99.90
33673;DHT22;20011;51.510;9.942;2022-09-09T09:54:14;19.30;99.90
33673;DHT22;20011;51.510;9.942;2022-09-09T09:56:46;19.30;99.30
33673;DHT22;20011;51.510;9.942;2022-09-09T09:59:23;19.30;99.20
33673;DHT22;20011;51.510;9.942;2022-09-09T10:02:23;19.40;99.50
33673;DHT22;20011;51.510;9.942;2022-09-09T10:05:06;19.40;99.90
33673;DHT22;20011;51.510;9.942;2022-09-09T10:07:36;19.40;99.90
33673;DHT22;20011;51.510;9.942;2022-09-09T10:10:04;19.50;99.90
33673;DHT22;20011;51.510;9.942;2022-09-09T10:12:55;19.50;99.90
33673;DHT22;20011;51.510;9.942;2022-09-09T10:26:54;19.50;99.60
33673;DHT22;20011;51.510;9.942;2022-09-09T10:35:19;19.40;98.80
33673;DHT22;20011;51.510;9.942;2022-09-09T10:40:39;19.50;98.20
33673;DHT22;20011;51.510;9.942;2022-09-09T10:46:17;19.50;98.20
33673;DHT22;20011;51.510;9.942;2022-09-09T10:51:33;19.50;98.00
33673;DHT22;20011;51.510;9.942;2022-09-09T10:56:33;19.50;97.50
33673;DHT22;20011;51.510;9.942;2022-09-09T10:59:09;19.50;97.30
33673;DHT22;20011;51.510;9.942;2022-09-09T11:01:49;19.50;97.20
33673;DHT22;20011;51.510;9.942;2022-09-09T11:04:40;19.50;96.90
33673;DHT22;20011;51.510;9.942;2022-09-09T11:07:12;19.50;96.80
33673;DHT22;20011;51.510;9.942;2022-09-09T11:09:47;19.60;96.70
33673;DHT22;20011;51.510;9.942;2022-09-09T11:12:18;19.60;96.30
33673;DHT22;20011;51.510;9.942;2022-09-09T11:14:59;19.70;96.60
33673;DHT22;20011;51.510;9.942;2022-09-09T11:17:39;19.70;95.70
33673;DHT22;20011;51.510;9.942;2022-09-09T11:20:13;19.70;95.40
33673;DHT22;20011;51.510;9.942;2022-09-09T11:22:59;19.80;95.50
33673;DHT22;20011;51.510;9.942;2022-09-09T11:25:48;19.80;95.40
33673;DHT22;20011;51.510;9.942;2022-09-09T11:34:18;19.90;94.60
33673;DHT22;20011;51.510;9.942;2022-09-09T11:42:37;20.00;93.80
33673;DHT22;20011;51.510;9.942;2022-09-09T11:45:30;20.10;93.70
33673;DHT22;20011;51.510;9.942;2022-09-09T11:48:00;20.10;93.70
33673;DHT22;20011;51.510;9.942;2022-09-09T11:50:33;20.20;93.20
33673;DHT22;20011;51.510;9.942;2022-09-09T11:55:40;20.30;92.60
33673;DHT22;20011;51.510;9.942;2022-09-09T12:00:40;20.20;92.60
33673;DHT22;20011;51.510;9.942;2022-09-09T12:06:30;20.20;92.30
33673;DHT22;20011;51.510;9.942;2022-09-09T12:11:48;20.20;92.20
33673;DHT22;20011;51.510;9.942;2022-09-09T12:14:38;20.20;91.90
33673;DHT22;20011;51.510;9.942;2022-09-09T12:17:19;20.20;91.40
33673;DHT22;20011;51.510;9.942;2022-09-09T12:19:47;20.20;91.10
33673;DHT22;20011;51.510;9.942;2022-09-09T12:22:35;20.20;91.60
33673;DHT22;20011;51.510;9.942;2022-09-09T12:27:40;20.20;92.20
33673;DHT22;20011;51.510;9.942;2022-09-09T12:30:14;20.20;92.00
33673;DHT22;20011;51.510;9.942;2022-09-09T12:32:42;20.30;91.10
33673;DHT22;20011;51.510;9.942;2022-09-09T12:35:17;20.30;90.80
33673;DHT22;20011;51.510;9.942;2022-09-09T12:37:55;20.30;90.50
33673;DHT22;20011;51.510;9.942;2022-09-09T12:40:25;20.40;90.30
33673;DHT22;20011;51.510;9.942;2022-09-09T12:42:53;20.30;90.20
33673;DHT22;20011;51.510;9.942;2022-09-09T12:45:25;20.30;90.10
33673;DHT22;20011;51.510;9.942;2022-09-09T12:48:09;20.30;90.20
33673;DHT22;20011;51.510;9.942;2022-09-09T12:50:50;20.30;90.20
33673;DHT22;20011;51.510;9.942;2022-09-09T12:53:38;20.40;90.30
33673;DHT22;20011;51.510;9.942;2022-09-09T12:56:08;20.40;90.70
33673;DHT22;20011;51.510;9.942;2022-09-09T12:58:37;20.30;91.20
33673;DHT22;20011;51.510;9.942;2022-09-09T13:01:05;20.30;91.50
33673;DHT22;20011;51.510;9.942;2022-09-09T13:03:41;20.30;91.80
33673;DHT22;20011;51.510;9.942;2022-09-09T13:06:17;20.30;91.40
33673;DHT22;20011;51.510;9.942;2022-09-09T13:08:45;20.20;90.70
33673;DHT22;20011;51.510;9.942;2022-09-09T13:11:20;20.30;90.30
33673;DHT22;20011;51.510;9.942;2022-09-09T13:13:55;20.30;90.30
33673;DHT22;20011;51.510;9.942;2022-09-09T13:19:06;20.30;90.20
33673;DHT22;20011;51.510;9.942;2022-09-09T13:21:38;20.40;93.10
33673;DHT22;20011;51.510;9.942;2022-09-09T13:27:25;20.30;89.00
33673;DHT22;20011;51.510;9.942;2022-09-09T13:29:52;20.20;87.10
33673;DHT22;20011;51.510;9.942;2022-09-09T13:32:25;20.20;85.90
33673;DHT22;20011;51.510;9.942;2022-09-09T13:35:02;20.20;86.30
33673;DHT22;20011;51.510;9.942;2022-09-09T13:37:37;20.20;86.80
33673;DHT22;20011;51.510;9.942;2022-09-09T13:40:06;20.20;88.10
33673;DHT22;20011;51.510;9.942;2022-09-09T13:42:37;20.20;89.50
33673;DHT22;20011;51.510;9.942;2022-09-09T13:45:05;20.20;90.10
33673;DHT22;20011;51.510;9.942;2022-09-09T13:47:36;20.20;90.60
33673;DHT22;20011;51.510;9.942;2022-09-09T13:52:48;20.30;90.20
33673;DHT22;20011;51.510;9.942;2022-09-09T13:55:17;20.30;89.40
33673;DHT22;20011;51.510;9.942;2022-09-09T13:58:14;20.20;88.50
33673;DHT22;20011;51.510;9.942;2022-09-09T14:00:42;20.20;88.70
33673;DHT22;20011;51.510;9.942;2022-09-09T14:03:11;20.30;88.80
33673;DHT22;20011;51.510;9.942;2022-09-09T14:05:38;20.30;89.20
33673;DHT22;20011;51.510;9.942;2022-09-09T14:08:07;20.30;89.40
33673;DHT22;20011;51.510;9.942;2022-09-09T14:10:34;20.30;89.30
33673;DHT22;20011;51.510;9.942;2022-09-09T14:13:04;20.30;89.60
33673;DHT22;20011;51.510;9.942;2022-09-09T14:15:31;20.30;89.20
33673;DHT22;20011;51.510;9.942;2022-09-09T14:17:58;20.30;89.00
33673;DHT22;20011;51.510;9.942;2022-09-09T14:20:25;20.30;89.00
33673;DHT22;20011;51.510;9.942;2022-09-09T14:22:52;20.40;89.00
33673;DHT22;20011;51.510;9.942;2022-09-09T14:25:20;20.50;90.10
33673;DHT22;20011;51.510;9.942;2022-09-09T14:27:47;20.50;89.40
33673;DHT22;20011;51.510;9.942;2022-09-09T14:30:14;20.50;88.60
33673;DHT22;20011;51.510;9.942;2022-09-09T14:32:40;20.50;88.30
33673;DHT22;20011;51.510;9.942;2022-09-09T14:35:08;20.60;87.30
33673;DHT22;20011;51.510;9.942;2022-09-09T14:37:35;20.60;87.40
33673;DHT22;20011;51.510;9.942;2022-09-09T14:40:02;20.60;87.50
33673;DHT22;20011;51.510;9.942;2022-09-09T14:42:29;20.50;87.50
33673;DHT22;20011;51.510;9.942;2022-09-09T14:44:59;20.60;87.90
33673;DHT22;20011;51.510;9.942;2022-09-09T14:47:26;20.50;87.60
33673;DHT22;20011;51.510;9.942;2022-09-09T14:49:53;20.50;88.00
33673;DHT22;20011;51.510;9.942;2022-09-09T14:52:20;20.40;87.80
33673;DHT22;20011;51.510;9.942;2022-09-09T14:54:48;20.50;88.00
33673;DHT22;20011;51.510;9.942;2022-09-09T14:57:16;20.50;89.00
33673;DHT22;20011;51.510;9.942;2022-09-09T14:59:43;20.50;89.50
33673;DHT22;20011;51.510;9.942;2022-09-09T15:02:10;20.50;89.30
33673;DHT22;20011;51.510;9.942;2022-09-09T15:04:37;20.50;88.50
33673;DHT22;20011;51.510;9.942;2022-09-09T15:07:04;20.50;88.10
33673;DHT22;20011;51.510;9.942;2022-09-09T15:09:31;20.50;87.60
33673;DHT22;20011;51.510;9.942;2022-09-09T15:11:58;20.50;87.50
33673;DHT22;20011;51.510;9.942;2022-09-09T15:14:26;20.50;89.40
33673;DHT22;20011;51.510;9.942;2022-09-09T15:16:53;20.50;87.90
33673;DHT22;20011;51.510;9.942;2022-09-09T15:19:20;20.50;87.20
33673;DHT22;20011;51.510;9.942;2022-09-09T15:21:47;20.60;86.90
33673;DHT22;20011;51.510;9.942;2022-09-09T15:24:14;20.50;86.60
33673;DHT22;20011;51.510;9.942;2022-09-09T15:26:44;20.50;87.50
33673;DHT22;20011;51.510;9.942;2022-09-09T15:29:12;20.60;87.70
33673;DHT22;20011;51.510;9.942;2022-09-09T15:31:39;20.50;88.10
33673;DHT22;20011;51.510;9.942;2022-09-09T15:34:07;20.60;87.30
33673;DHT22;20011;51.510;9.942;2022-09-09T15:36:36;20.60;87.10
33673;DHT22;20011;51.510;9.942;2022-09-09T15:39:06;20.60;87.40
33673;DHT22;20011;51.510;9.942;2022-09-09T15:41:33;20.60;87.30
33673;DHT22;20011;51.510;9.942;2022-09-09T15:44:01;20.50;87.60
33673;DHT22;20011;51.510;9.942;2022-09-09T15:51:37;20.40;86.80
33673;DHT22;20011;51.510;9.942;2022-09-09T15:54:18;20.50;86.90
33673;DHT22;20011;51.510;9.942;2022-09-09T15:56:47;20.50;86.70
33673;DHT22;20011;51.510;9.942;2022-09-09T15:59:15;20.40;87.10
33673;DHT22;20011;51.510;9.942;2022-09-09T16:01:43;20.50;86.50
33673;DHT22;20011;51.510;9.942;2022-09-09T16:04:10;20.50;85.80
33673;DHT22;20011;51.510;9.942;2022-09-09T16:06:37;20.40;87.60
33673;DHT22;20011;51.510;9.942;2022-09-09T16:09:07;20.40;90.90
33673;DHT22;20011;51.510;9.942;2022-09-09T16:11:36;20.50;91.30
33673;DHT22;20011;51.510;9.942;2022-09-09T16:14:04;20.40;91.60
33673;DHT22;20011;51.510;9.942;2022-09-09T16:16:32;20.50;91.80
33673;DHT22;20011;51.510;9.942;2022-09-09T16:19:02;20.40;91.10
33673;DHT22;20011;51.510;9.942;2022-09-09T16:21:34;20.40;90.30
33673;DHT22;20011;51.510;9.942;2022-09-09T16:24:03;20.40;88.40
33673;DHT22;20011;51.510;9.942;2022-09-09T16:26:32;20.40;87.50
33673;DHT22;20011;51.510;9.942;2022-09-09T16:29:00;20.40;87.10
33673;DHT22;20011;51.510;9.942;2022-09-09T16:31:28;20.40;86.00
33673;DHT22;20011;51.510;9.942;2022-09-09T16:33:56;20.40;85.50
33673;DHT22;20011;51.510;9.942;2022-09-09T16:36:27;20.30;84.80
33673;DHT22;20011;51.510;9.942;2022-09-09T16:38:55;20.40;84.60
33673;DHT22;20011;51.510;9.942;2022-09-09T16:41:25;20.30;84.60
33673;DHT22;20011;51.510;9.942;2022-09-09T16:43:56;20.30;84.80
33673;DHT22;20011;51.510;9.942;2022-09-09T16:46:23;20.30;84.60
33673;DHT22;20011;51.510;9.942;2022-09-09T16:48:51;20.30;84.30
33673;DHT22;20011;51.510;9.942;2022-09-09T16:51:32;20.20;84.50
33673;DHT22;20011;51.510;9.942;2022-09-09T16:54:01;20.20;84.60
33673;DHT22;20011;51.510;9.942;2022-09-09T16:56:31;20.20;84.30
33673;DHT22;20011;51.510;9.942;2022-09-09T16:59:06;20.20;84.20
33673;DHT22;20011;51.510;9.942;2022-09-09T17:01:34;20.20;84.60
33673;DHT22;20011;51.510;9.942;2022-09-09T17:04:07;20.20;85.40
33673;DHT22;20011;51.510;9.942;2022-09-09T17:06:35;20.20;85.40
33673;DHT22;20011;51.510;9.942;2022-09-09T17:09:09;20.10;85.50
33673;DHT22;20011;51.510;9.942;2022-09-09T17:11:38;20.10;85.90
33673;DHT22;20011;51.510;9.942;2022-09-09T17:14:06;20.10;86.10
33673;DHT22;20011;51.510;9.942;2022-09-09T17:16:35;20.10;85.70
33673;DHT22;20011;51.510;9.942;2022-09-09T17:19:03;20.10;85.80
33673;DHT22;20011;51.510;9.942;2022-09-09T17:21:32;20.00;87.30
33673;DHT22;20011;51.510;9.942;2022-09-09T17:23:59;20.00;88.80
33673;DHT22;20011;51.510;9.942;2022-09-09T17:26:28;20.00;89.40
33673;DHT22;20011;51.510;9.942;2022-09-09T17:28:57;20.00;90.30
33673;DHT22;20011;51.510;9.942;2022-09-09T17:31:26;19.90;90.30
33673;DHT22;20011;51.510;9.942;2022-09-09T17:33:54;19.90;90.30
33673;DHT22;20011;51.510;9.942;2022-09-09T17:36:24;19.90;90.60
33673;DHT22;20011;51.510;9.942;2022-09-09T17:38:52;19.80;90.90
33673;DHT22;20011;51.510;9.942;2022-09-09T17:41:22;19.90;91.20
33673;DHT22;20011;51.510;9.942;2022-09-09T17:43:50;19.80;91.10
33673;DHT22;20011;51.510;9.942;2022-09-09T17:46:22;19.80;91.20
33673;DHT22;20011;51.510;9.942;2022-09-09T17:48:52;19.80;91.50
33673;DHT22;20011;51.510;9.942;2022-09-09T17:51:22;19.70;91.60
33673;DHT22;20011;51.510;9.942;2022-09-09T17:53:52;19.70;92.10
33673;DHT22;20011;51.510;9.942;2022-09-09T17:56:23;19.70;91.90
33673;DHT22;20011;51.510;9.942;2022-09-09T17:58:51;19.70;91.70
33673;DHT22;20011;51.510;9.942;2022-09-09T18:01:25;19.70;91.90
33673;DHT22;20011;51.510;9.942;2022-09-09T18:03:55;19.70;91.90
33673;DHT22;20011;51.510;9.942;2022-09-09T18:06:31;19.60;91.60
33673;DHT22;20011;51.510;9.942;2022-09-09T18:09:05;19.60;91.60
33673;DHT22;20011;51.510;9.942;2022-09-09T18:11:36;19.50;91.30
33673;DHT22;20011;51.510;9.942;2022-09-09T18:14:06;19.60;91.40
33673;DHT22;20011;51.510;9.942;2022-09-09T18:16:33;19.50;91.30
33673;DHT22;20011;51.510;9.942;2022-09-09T18:19:07;19.50;91.10
33673;DHT22;20011;51.510;9.942;2022-09-09T18:21:35;19.40;90.70
33673;DHT22;20011;51.510;9.942;2022-09-09T18:24:04;19.50;90.70
33673;DHT22;20011;51.510;9.942;2022-09-09T18:26:32;19.50;90.80
33673;DHT22;20011;51.510;9.942;2022-09-09T18:29:03;19.50;90.60
33673;DHT22;20011;51.510;9.942;2022-09-09T18:31:31;19.40;90.50